createdAt,value
2023-04-18T00:00:43.908Z,9.35
2023-04-18T00:03:11.211Z,8.57
2023-04-18T00:05:38.767Z,9.20
2023-04-18T00:08:05.803Z,9.23
2023-04-18T00:10:35.140Z,9.23
2023-04-18T00:13:02.469Z,8.82
2023-04-18T00:15:43.911Z,9.75
2023-04-18T00:18:32.879Z,9.25
2023-04-18T00:20:59.735Z,9.35
2023-04-18T00:23:28.285Z,9.63
2023-04-18T00:25:55.736Z,9.82
2023-04-18T00:28:23.256Z,9.52
2023-04-18T00:30:50.592Z,9.20
2023-04-18T00:33:17.700Z,9.00
2023-04-18T00:35:44.944Z,9.43
2023-04-18T00:38:15.956Z,9.88
2023-04-18T00:40:43.783Z,10.38
2023-04-18T00:43:13.411Z,10.43
2023-04-18T00:45:41.415Z,10.05
2023-04-18T00:48:09.399Z,10.68
2023-04-18T00:50:36.723Z,10.00
2023-04-18T00:53:04.052Z,10.02
2023-04-18T00:55:31.810Z,9.90
2023-04-18T00:57:59.283Z,9.98
2023-04-18T01:00:26.629Z,9.82
2023-04-18T01:02:55.870Z,10.65
2023-04-18T01:05:23.938Z,10.57
2023-04-18T01:07:52.232Z,10.07
2023-04-18T01:10:19.950Z,10.35
2023-04-18T01:12:49.881Z,12.20
2023-04-18T01:15:16.999Z,10.95
2023-04-18T01:17:43.968Z,10.05
2023-04-18T01:20:13.780Z,10.80
2023-04-18T01:22:40.890Z,11.38
2023-04-18T01:25:08.966Z,10.85
2023-04-18T01:27:36.102Z,10.75
2023-04-18T01:30:03.218Z,10.60
2023-04-18T01:32:31.988Z,10.32
2023-04-18T01:34:59.182Z,9.65
2023-04-18T01:37:27.104Z,10.32
2023-04-18T01:39:54.317Z,10.68
2023-04-18T01:42:23.606Z,10.60
2023-04-18T01:44:53.209Z,11.10
2023-04-18T01:47:20.630Z,9.98
2023-04-18T01:49:48.479Z,10.57
2023-04-18T01:52:16.258Z,10.40
2023-04-18T01:54:43.071Z,11.13
2023-04-18T01:57:10.487Z,10.57
2023-04-18T01:59:38.572Z,10.77
2023-04-18T02:02:05.840Z,10.55
2023-04-18T02:04:32.960Z,10.68
2023-04-18T02:07:00.255Z,10.32
2023-04-18T02:09:27.293Z,10.98
2023-04-18T02:11:56.383Z,11.05
2023-04-18T02:14:23.954Z,10.45
2023-04-18T02:16:51.544Z,11.10
2023-04-18T02:19:18.744Z,10.98
2023-04-18T02:21:45.853Z,11.30
2023-04-18T02:24:14.756Z,11.20
2023-04-18T02:26:42.508Z,12.18
2023-04-18T02:29:09.904Z,11.23
2023-04-18T02:31:40.716Z,11.88
2023-04-18T02:34:08.187Z,11.68
2023-04-18T02:36:35.275Z,11.82
2023-04-18T02:39:05.909Z,11.65
2023-04-18T02:41:34.724Z,12.13
2023-04-18T02:44:01.763Z,12.35
2023-04-18T02:46:29.096Z,11.63
2023-04-18T02:48:56.576Z,11.23
2023-04-18T02:51:26.440Z,11.77
2023-04-18T02:53:55.240Z,11.82
2023-04-18T02:56:23.399Z,11.60
2023-04-18T02:59:09.132Z,10.93
2023-04-18T03:01:56.759Z,11.75
2023-04-18T03:04:24.105Z,11.13
2023-04-18T03:06:59.400Z,10.50
2023-04-18T03:09:28.071Z,9.57
2023-04-18T03:12:02.189Z,9.43
2023-04-18T03:14:30.880Z,9.07
2023-04-18T03:16:59.732Z,8.70
2023-04-18T03:19:32.215Z,8.73
2023-04-18T03:22:04.940Z,9.27
2023-04-18T03:24:33.982Z,8.82
2023-04-18T03:27:03.788Z,9.00
2023-04-18T03:29:31.140Z,8.73
2023-04-18T03:31:58.395Z,8.52
2023-04-18T03:34:25.651Z,7.60
2023-04-18T03:36:54.407Z,8.02
2023-04-18T03:39:22.530Z,8.55
2023-04-18T03:41:52.908Z,9.05
2023-04-18T03:44:20.639Z,8.50
2023-04-18T03:46:47.951Z,9.90
2023-04-18T03:49:14.816Z,9.13
2023-04-18T03:51:47.999Z,9.43
2023-04-18T03:54:16.069Z,9.55
2023-04-18T03:56:43.354Z,10.45
2023-04-18T03:59:11.151Z,9.90
2023-04-18T04:01:39.916Z,10.20
2023-04-18T04:04:07.003Z,9.90
2023-04-18T04:06:34.913Z,10.88
2023-04-18T04:09:02.089Z,9.95
2023-04-18T04:11:29.584Z,10.05
2023-04-18T04:13:56.822Z,9.75
2023-04-18T04:16:29.006Z,9.45
2023-04-18T04:18:56.917Z,9.68
2023-04-18T04:23:58.555Z,9.30
2023-04-18T04:26:43.354Z,10.80
2023-04-18T04:29:16.159Z,10.90
2023-04-18T04:31:44.817Z,11.43
2023-04-18T04:34:12.061Z,11.23
2023-04-18T04:36:41.286Z,11.10
2023-04-18T04:39:09.314Z,9.70
2023-04-18T04:41:53.470Z,10.05
2023-04-18T04:44:26.164Z,9.70
2023-04-18T04:46:54.585Z,9.57
2023-04-18T04:49:25.955Z,9.60
2023-04-18T04:51:53.002Z,9.95
2023-04-18T04:54:20.674Z,9.85
2023-04-18T04:56:48.051Z,10.80
2023-04-18T04:59:15.985Z,11.35
2023-04-18T05:01:45.125Z,10.07
2023-04-18T05:04:12.825Z,10.35
2023-04-18T05:06:50.715Z,10.18
2023-04-18T05:09:17.919Z,12.50
2023-04-18T05:11:45.673Z,12.05
2023-04-18T05:14:12.727Z,15.77
2023-04-18T05:16:40.418Z,12.02
2023-04-18T05:19:07.648Z,10.77
2023-04-18T05:21:34.689Z,10.60
2023-04-18T05:24:01.749Z,10.40
2023-04-18T05:26:28.666Z,10.52
2023-04-18T05:28:55.573Z,11.02
2023-04-18T05:31:23.003Z,9.93
2023-04-18T05:33:50.293Z,10.00
2023-04-18T05:36:17.203Z,10.38
2023-04-18T05:38:44.308Z,11.25
2023-04-18T05:41:11.490Z,11.70
2023-04-18T05:43:38.559Z,12.73
2023-04-18T05:46:05.710Z,12.27
2023-04-18T05:48:33.037Z,11.95
2023-04-18T05:51:00.113Z,13.75
2023-04-18T05:53:27.335Z,12.55
2023-04-18T05:55:55.224Z,11.35
2023-04-18T05:58:35.777Z,10.20
2023-04-18T06:01:03.121Z,9.32
2023-04-18T06:48:11.504Z,6.50
2023-04-18T06:50:38.524Z,6.18
2023-04-18T06:53:05.445Z,6.03
2023-04-18T06:55:32.375Z,5.07
2023-04-18T06:58:00.578Z,5.15
2023-04-18T07:00:28.585Z,6.35
2023-04-18T07:02:56.323Z,5.55
2023-04-18T07:05:23.734Z,7.00
2023-04-18T07:07:51.578Z,6.97
2023-04-18T07:10:19.308Z,17.67
2023-04-18T07:12:47.687Z,6.75
2023-04-18T07:15:14.800Z,6.65
2023-04-18T07:17:41.891Z,7.30
2023-04-18T07:20:09.248Z,6.80
2023-04-18T07:22:36.763Z,7.53
2023-04-18T07:25:03.851Z,8.15
2023-04-18T07:27:31.197Z,8.10
2023-04-18T07:29:58.423Z,8.60
2023-04-18T07:32:25.272Z,8.50
2023-04-18T07:34:52.958Z,7.93
2023-04-18T07:37:21.370Z,8.00
2023-04-18T07:39:49.423Z,8.25
2023-04-18T07:42:16.561Z,8.52
2023-04-18T07:44:43.887Z,9.25
2023-04-18T07:47:10.935Z,10.30
2023-04-18T07:49:38.357Z,10.00
2023-04-18T07:52:05.587Z,9.43
2023-04-18T07:54:32.858Z,11.25
2023-04-18T07:57:00.183Z,12.25
2023-04-18T07:59:28.006Z,9.95
2023-04-18T08:01:55.014Z,11.38
2023-04-18T08:04:22.031Z,10.02
2023-04-18T08:06:49.139Z,10.18
2023-04-18T08:09:16.690Z,11.05
2023-04-18T08:11:43.766Z,9.10
2023-04-18T08:14:10.793Z,9.95
2023-04-18T08:16:38.318Z,9.68
2023-04-18T08:19:05.499Z,9.07
2023-04-18T08:21:32.680Z,9.95
2023-04-18T08:23:59.592Z,10.52
2023-04-18T08:26:27.305Z,10.48
2023-04-18T08:28:54.122Z,12.13
2023-04-18T08:31:21.310Z,12.05
2023-04-18T08:33:48.163Z,11.52
2023-04-18T08:36:15.083Z,10.18
2023-04-18T08:38:42.085Z,10.82
2023-04-18T08:41:09.933Z,10.35
2023-04-18T08:43:38.165Z,8.45
2023-04-18T08:46:05.139Z,8.35
2023-04-18T08:48:32.203Z,8.82
2023-04-18T08:50:59.563Z,10.18
2023-04-18T08:53:26.882Z,9.18
2023-04-18T08:55:54.689Z,8.32
2023-04-18T08:58:27.200Z,8.40
2023-04-18T09:03:41.460Z,9.75
2023-04-18T09:06:08.570Z,9.15
2023-04-18T09:08:36.439Z,8.13
2023-04-18T09:11:22.305Z,8.25
2023-04-18T09:13:50.646Z,7.68
2023-04-18T09:16:19.688Z,9.05
2023-04-18T09:19:06.991Z,7.50
2023-04-18T09:21:36.234Z,8.15
2023-04-18T09:24:21.766Z,7.63
2023-04-18T09:26:51.018Z,7.95
2023-04-18T09:29:18.752Z,8.23
2023-04-18T09:31:55.433Z,7.80
2023-04-18T09:40:20.127Z,8.55
2023-04-18T09:42:50.858Z,8.52
2023-04-18T09:45:18.750Z,8.35
2023-04-18T09:47:48.210Z,8.38
2023-04-18T09:50:18.393Z,9.40
2023-04-18T09:52:45.713Z,8.55
2023-04-18T09:58:13.892Z,7.82
2023-04-18T10:00:41.209Z,9.15
2023-04-18T10:03:14.096Z,8.70
2023-04-18T10:11:27.303Z,8.60
2023-04-18T10:13:57.729Z,9.70
2023-04-18T11:31:35.262Z,4.03
2023-04-18T11:34:07.557Z,5.00
2023-04-18T11:36:42.840Z,3.83
2023-04-18T11:42:02.892Z,6.95
2023-04-18T11:47:35.931Z,6.57
2023-04-18T11:50:12.450Z,6.45
2023-04-18T11:52:47.656Z,5.18
2023-04-18T11:55:56.144Z,4.45
2023-04-18T11:58:30.217Z,3.67
2023-04-18T12:01:01.977Z,3.75
2023-04-18T12:04:14.815Z,4.53
2023-04-18T12:06:49.358Z,5.50
2023-04-18T12:09:18.671Z,5.68
2023-04-18T12:12:25.628Z,5.70
2023-04-18T12:15:00.583Z,6.90
2023-04-18T12:17:32.312Z,7.10
2023-04-18T12:20:06.442Z,6.88
2023-04-18T12:22:55.930Z,7.65
2023-04-18T12:25:55.787Z,7.93
2023-04-18T12:28:54.346Z,7.50
2023-04-18T12:31:31.123Z,6.20
2023-04-18T12:34:21.312Z,5.05
2023-04-18T12:40:13.395Z,4.80
2023-04-18T12:45:37.200Z,3.60
2023-04-18T12:48:05.666Z,3.90
2023-04-18T12:50:39.608Z,4.68
2023-04-18T12:53:14.167Z,4.80
2023-04-18T12:55:42.097Z,6.40
2023-04-18T12:58:10.403Z,5.43
2023-04-18T13:00:40.935Z,5.65
2023-04-18T13:03:09.688Z,5.80
2023-04-18T13:05:38.296Z,6.38
2023-04-18T13:08:17.183Z,6.78
2023-04-18T13:10:47.051Z,8.13
2023-04-18T13:13:14.707Z,7.32
2023-04-18T13:15:48.578Z,11.30
2023-04-18T13:18:19.073Z,11.45
2023-04-18T13:20:47.077Z,12.02
2023-04-18T13:23:14.302Z,11.85
2023-04-18T13:25:41.529Z,11.93
2023-04-18T13:28:10.450Z,9.32
2023-04-18T13:30:38.001Z,9.43
2023-04-18T13:33:05.383Z,6.43
2023-04-18T13:35:32.798Z,8.20
2023-04-18T13:37:59.651Z,7.38
2023-04-18T13:40:27.360Z,6.43
2023-04-18T13:42:54.833Z,7.60
2023-04-18T13:45:21.892Z,7.25
2023-04-18T13:47:48.943Z,8.23
2023-04-18T13:50:16.400Z,9.13
2023-04-18T13:52:43.386Z,7.13
2023-04-18T13:55:10.722Z,8.30
2023-04-18T13:57:37.447Z,7.82
2023-04-18T14:00:06.580Z,7.65
2023-04-18T14:02:44.224Z,7.68
2023-04-18T14:05:15.070Z,9.18
2023-04-18T14:08:04.227Z,8.63
2023-04-18T14:10:31.521Z,8.50
2023-04-18T14:12:58.402Z,9.48
2023-04-18T14:15:31.434Z,8.80
2023-04-18T14:17:59.561Z,8.27
2023-04-18T14:20:34.630Z,7.85
2023-04-18T14:25:30.131Z,9.65
2023-04-18T14:28:08.852Z,8.27
2023-04-18T14:30:36.698Z,6.72
2023-04-18T14:33:04.228Z,5.20
2023-04-18T14:35:32.055Z,5.95
2023-04-18T14:38:01.929Z,6.00
2023-04-18T14:40:30.800Z,5.60
2023-04-18T14:43:05.064Z,5.80
2023-04-18T14:45:32.914Z,6.10
2023-04-18T14:48:00.444Z,5.85
2023-04-18T14:50:31.210Z,7.35
2023-04-18T14:52:58.293Z,8.25
2023-04-18T14:55:27.921Z,11.82
2023-04-18T14:57:54.952Z,8.80
2023-04-18T15:00:22.164Z,8.52
2023-04-18T15:03:04.389Z,8.15
2023-04-18T15:05:36.409Z,8.63
2023-04-18T15:08:06.982Z,9.63
2023-04-18T15:10:33.958Z,8.00
2023-04-18T15:13:01.342Z,7.53
2023-04-18T15:15:31.059Z,7.30
2023-04-18T15:17:57.974Z,5.20
2023-04-18T15:20:25.437Z,5.57
2023-04-18T15:22:52.870Z,5.22
2023-04-18T15:25:20.505Z,5.88
2023-04-18T15:27:47.704Z,5.35
2023-04-18T15:30:15.137Z,5.45
2023-04-18T15:32:42.423Z,4.53
2023-04-18T15:35:10.039Z,4.65
2023-04-18T15:37:37.109Z,4.22
2023-04-18T15:40:11.023Z,4.13
2023-04-18T15:42:53.198Z,4.32
2023-04-18T15:48:02.783Z,4.72
2023-04-18T15:50:31.538Z,3.97
2023-04-18T15:53:01.085Z,4.18
2023-04-18T15:55:28.212Z,4.50
2023-04-18T15:57:56.276Z,4.50
2023-04-18T16:00:24.071Z,5.63
2023-04-18T16:02:51.406Z,5.38
2023-04-18T16:05:19.070Z,6.35
2023-04-18T16:07:46.344Z,6.25
2023-04-18T16:10:15.428Z,6.88
2023-04-18T16:12:48.736Z,6.82
2023-04-18T16:15:21.892Z,7.95
2023-04-18T16:17:49.221Z,7.30
2023-04-18T16:20:42.557Z,8.18
2023-04-18T16:25:38.822Z,8.15
2023-04-18T16:28:12.744Z,9.35
2023-04-18T16:30:40.009Z,8.50
2023-04-18T16:33:06.927Z,10.32
2023-04-18T16:35:40.317Z,8.00
2023-04-18T16:38:10.252Z,8.13
2023-04-18T16:40:38.065Z,8.65
2023-04-18T16:43:05.100Z,8.75
2023-04-18T16:45:33.632Z,8.55
2023-04-18T16:48:01.072Z,9.38
2023-04-18T16:50:35.952Z,9.35
2023-04-18T16:53:03.221Z,10.55
2023-04-18T16:55:30.300Z,10.02
2023-04-18T16:57:57.302Z,11.07
2023-04-18T17:00:24.510Z,10.45
2023-04-18T17:02:51.956Z,10.63
2023-04-18T17:05:19.542Z,10.63
2023-04-18T17:07:47.851Z,11.25
2023-04-18T17:10:16.936Z,10.95
2023-04-18T17:12:49.217Z,11.75
2023-04-18T17:15:19.691Z,11.57
2023-04-18T17:17:46.935Z,12.43
2023-04-18T17:20:14.299Z,12.05
2023-04-18T17:22:44.490Z,11.38
2023-04-18T17:25:12.563Z,11.63
2023-04-18T17:27:41.521Z,11.90
2023-04-18T17:30:12.309Z,12.48
2023-04-18T17:32:45.800Z,13.50
2023-04-18T17:37:39.646Z,11.68
2023-04-18T17:40:10.043Z,12.55
2023-04-18T17:43:04.593Z,11.38
2023-04-18T17:45:32.004Z,11.02
2023-04-18T17:48:03.103Z,12.23
2023-04-18T17:53:32.036Z,12.57
2023-04-18T17:56:03.894Z,12.20
2023-04-18T17:58:32.288Z,11.65
2023-04-18T18:01:00.946Z,12.32
2023-04-18T18:03:28.760Z,12.13
2023-04-18T18:05:56.858Z,12.00
2023-04-18T18:08:25.255Z,12.68
2023-04-18T19:09:21.321Z,18.55
2023-04-18T19:11:52.416Z,18.45
2023-04-18T19:14:21.962Z,19.52
2023-04-18T19:17:12.961Z,19.67
2023-04-18T19:19:40.012Z,20.08
2023-04-18T19:22:07.421Z,19.25
2023-04-18T19:24:40.748Z,18.88
2023-04-18T19:27:10.222Z,19.20
2023-04-18T19:29:37.728Z,18.77
2023-04-18T19:32:06.640Z,18.80
2023-04-18T19:34:33.916Z,18.83
2023-04-18T19:37:01.429Z,18.33
2023-04-18T19:39:29.365Z,18.52
2023-04-18T19:42:02.775Z,18.73
2023-04-18T19:44:31.269Z,19.85
2023-04-18T19:46:58.115Z,20.27
2023-04-18T19:49:46.141Z,21.70
2023-04-18T19:52:18.492Z,19.63
2023-04-18T19:55:00.489Z,20.10
2023-04-18T19:57:29.012Z,23.13
2023-04-18T19:59:56.577Z,21.35
2023-04-18T20:02:23.682Z,20.20
2023-04-18T20:04:51.233Z,19.55
2023-04-18T20:07:18.572Z,20.13
2023-04-18T20:09:45.763Z,20.58
2023-04-18T20:12:12.694Z,20.50
2023-04-18T20:14:39.711Z,21.38
2023-04-18T20:17:09.664Z,19.02
2023-04-18T20:19:37.410Z,20.33
2023-04-18T20:22:04.469Z,19.15
2023-04-18T20:24:32.014Z,18.50
2023-04-18T20:26:59.483Z,17.75
2023-04-18T20:29:26.887Z,18.55
2023-04-18T20:31:54.255Z,18.25
2023-04-18T20:34:32.230Z,17.38
2023-04-18T20:36:59.989Z,16.98
2023-04-18T20:39:28.073Z,16.55
2023-04-18T20:41:57.805Z,16.65
2023-04-18T20:44:24.936Z,17.88
2023-04-18T20:46:54.626Z,17.95
2023-04-18T20:49:21.754Z,16.08
2023-04-18T20:51:48.989Z,14.80
2023-04-18T20:54:16.286Z,15.52
2023-04-18T20:56:43.439Z,14.38
2023-04-18T20:59:10.529Z,13.93
2023-04-18T21:01:37.445Z,13.43
2023-04-18T21:04:04.897Z,29.55
2023-04-18T21:06:32.913Z,13.98
2023-04-18T21:08:59.906Z,12.70
2023-04-18T21:11:27.556Z,13.40
2023-04-18T21:13:54.996Z,12.93
2023-04-18T21:16:23.924Z,12.43
2023-04-18T21:18:51.559Z,11.98
2023-04-18T21:21:18.868Z,13.70
2023-04-18T21:23:46.039Z,12.85
2023-04-18T21:26:13.667Z,12.32
2023-04-18T21:29:00.048Z,13.77
2023-04-18T21:31:28.711Z,12.93
2023-04-18T21:33:56.401Z,12.38
2023-04-18T21:36:23.999Z,13.43
2023-04-18T21:38:52.449Z,13.52
2023-04-18T21:41:20.615Z,14.23
2023-04-18T21:43:48.039Z,13.60
2023-04-18T21:46:15.642Z,13.38
2023-04-18T21:48:44.079Z,14.20
2023-04-18T21:51:11.752Z,13.88
2023-04-18T21:53:39.060Z,13.95
2023-04-18T21:56:06.448Z,13.45
2023-04-18T21:58:34.198Z,13.82
2023-04-18T22:01:02.254Z,14.45
2023-04-18T22:03:30.364Z,13.70
2023-04-18T22:05:57.965Z,13.95
2023-04-18T22:08:28.416Z,14.25
2023-04-18T22:10:57.694Z,14.50
2023-04-18T22:13:25.605Z,14.68
2023-04-18T22:15:52.961Z,14.45
2023-04-18T22:18:20.446Z,14.95
2023-04-18T22:20:47.710Z,15.07
2023-04-18T22:23:14.884Z,14.90
2023-04-18T22:25:41.937Z,13.60
2023-04-18T22:28:09.155Z,13.85
2023-04-18T22:30:39.069Z,12.90
2023-04-18T22:33:06.384Z,13.27
2023-04-18T22:35:33.330Z,12.40
2023-04-18T22:38:00.785Z,12.20
2023-04-18T22:40:28.084Z,12.35
2023-04-18T22:42:55.266Z,12.75
2023-04-18T22:45:22.257Z,12.30
2023-04-18T22:47:49.137Z,12.82
2023-04-18T22:50:16.243Z,12.55
2023-04-18T22:52:43.506Z,12.50
2023-04-18T22:55:11.001Z,12.25
2023-04-18T22:57:38.398Z,12.10
2023-04-18T23:00:06.979Z,11.75
2023-04-18T23:02:36.907Z,12.35
2023-04-18T23:05:04.782Z,12.52
2023-04-18T23:07:31.727Z,12.30
2023-04-18T23:09:58.846Z,12.80
2023-04-18T23:12:26.819Z,11.55
2023-04-18T23:14:53.931Z,12.27
2023-04-18T23:17:21.293Z,10.90
2023-04-18T23:19:48.339Z,11.70
2023-04-18T23:22:15.410Z,11.50
2023-04-18T23:24:42.846Z,11.85
2023-04-18T23:27:09.945Z,11.60
2023-04-18T23:29:40.436Z,12.45
2023-04-18T23:32:07.639Z,12.02
2023-04-18T23:34:34.938Z,12.70
2023-04-18T23:37:05.128Z,12.52
2023-04-18T23:39:32.303Z,13.27
2023-04-18T23:41:59.312Z,13.55
2023-04-18T23:44:26.340Z,13.15
2023-04-18T23:46:53.509Z,13.15
2023-04-18T23:49:21.037Z,12.73
2023-04-18T23:51:48.125Z,13.50
2023-04-18T23:54:15.647Z,12.90
2023-04-18T23:56:50.736Z,13.93
2023-04-18T23:59:18.354Z,13.35
